Time;durP1;ratioP1;P1;durP2;ratioP2;P2;SDS_P1;SDS_P2;PMS_P1;PMS_P2;Temp;Humidity;BMP_temperature;BMP_pressure;BME280_temperature;BME280_humidity;BME280_pressure;Samples;Min_cycle;Max_cycle;Signal;HPM_P1;HPM_P2
2022/03/10 00:01:19;;;;;;;17.63;16.00;;;3.50;93.10;;;;;;4949388;28;20649;-78
2022/03/10 00:03:48;;;;;;;19.90;14.30;;;3.50;93.10;;;;;;4940870;28;20479;-79
2022/03/10 00:06:16;;;;;;;16.07;14.47;;;3.40;93.40;;;;;;4939551;28;20514;-78
2022/03/10 00:08:45;;;;;;;14.60;13.10;;;3.40;93.20;;;;;;4939727;29;20463;-79
2022/03/10 00:11:14;;;;;;;15.50;13.90;;;3.40;93.50;;;;;;4941175;29;20445;-79
2022/03/10 00:13:43;;;;;;;15.53;14.03;;;3.30;93.20;;;;;;4941267;29;20554;-79
2022/03/10 00:16:11;;;;;;;14.87;13.30;;;3.30;93.30;;;;;;4941898;28;20442;-79
2022/03/10 00:18:40;;;;;;;16.20;14.60;;;3.30;93.30;;;;;;4958996;29;20454;-79
2022/03/10 00:21:08;;;;;;;15.17;13.70;;;3.30;93.30;;;;;;4957160;28;20450;-79
2022/03/10 00:23:36;;;;;;;15.87;14.27;;;3.30;93.30;;;;;;4964708;28;20478;-78
2022/03/10 00:26:05;;;;;;;16.03;14.33;;;3.20;93.30;;;;;;4979886;28;20470;-79
2022/03/10 00:28:34;;;;;;;15.93;14.07;;;3.20;93.30;;;;;;4980382;28;20537;-78
2022/03/10 00:31:03;;;;;;;15.70;14.10;;;3.20;93.40;;;;;;4980513;29;20484;-78
2022/03/10 00:33:31;;;;;;;16.73;14.90;;;3.20;93.40;;;;;;4962528;28;20482;-78
2022/03/10 00:35:59;;;;;;;15.83;14.13;;;3.10;93.40;;;;;;4961901;28;20494;-78
2022/03/10 00:38:28;;;;;;;17.00;15.23;;;3.10;93.50;;;;;;4962648;29;20469;-78
2022/03/10 00:40:56;;;;;;;17.20;15.47;;;3.10;93.50;;;;;;4963154;28;20503;-78
2022/03/10 00:43:24;;;;;;;16.73;15.13;;;3.00;93.50;;;;;;4956639;29;20551;-78
2022/03/10 00:45:54;;;;;;;16.30;14.60;;;3.00;93.50;;;;;;4953644;29;20483;-78
2022/03/10 00:48:22;;;;;;;17.83;16.07;;;2.90;93.60;;;;;;4954089;28;20459;-78
2022/03/10 00:50:51;;;;;;;17.07;15.27;;;2.90;93.60;;;;;;4952335;29;20467;-77
2022/03/10 00:53:19;;;;;;;19.30;14.87;;;2.90;93.70;;;;;;4941978;29;20466;-79
2022/03/10 00:55:47;;;;;;;16.97;15.30;;;2.90;93.70;;;;;;4959697;28;20499;-78
2022/03/10 00:58:16;;;;;;;16.40;14.70;;;2.80;93.70;;;;;;4959106;28;20454;-79
2022/03/10 01:00:44;;;;;;;17.43;15.73;;;2.80;93.80;;;;;;4958628;28;20517;-79
2022/03/10 01:03:14;;;;;;;12.20;11.00;;;2.80;93.80;;;;;;4958767;28;20446;-79
2022/03/10 01:05:42;;;;;;;17.50;15.80;;;2.80;93.90;;;;;;4958297;28;20899;-79
2022/03/10 01:08:11;;;;;;;16.53;14.47;;;2.70;93.90;;;;;;4959494;29;20984;-78
2022/03/10 01:10:40;;;;;;;16.03;14.40;;;2.70;93.90;;;;;;4958246;28;20454;-79
2022/03/10 01:13:13;;;;;;;16.43;14.83;;;2.70;94.00;;;;;;4959631;28;20443;-78
2022/03/10 01:15:42;;;;;;;16.90;15.00;;;2.70;94.00;;;;;;4949630;29;20542;-78
2022/03/10 01:18:11;;;;;;;17.90;15.27;;;2.60;94.00;;;;;;4939082;29;20463;-79
2022/03/10 01:20:41;;;;;;;18.30;16.40;;;2.70;94.10;;;;;;4940480;28;20482;-79
2022/03/10 01:23:11;;;;;;;16.67;15.07;;;2.70;94.20;;;;;;4958956;28;20530;-79
2022/03/10 01:25:40;;;;;;;17.70;16.10;;;2.60;94.20;;;;;;4957666;28;20457;-79
2022/03/10 01:28:08;;;;;;;16.70;15.10;;;2.60;94.30;;;;;;4959335;29;20441;-79
2022/03/10 01:30:36;;;;;;;16.63;15.03;;;2.60;94.30;;;;;;4946636;28;20865;-79
2022/03/10 01:33:05;;;;;;;18.90;16.20;;;2.60;94.40;;;;;;4938514;29;20455;-79
2022/03/10 01:35:33;;;;;;;16.37;14.77;;;2.60;94.40;;;;;;4939658;29;20486;-79
2022/03/10 01:38:04;;;;;;;17.20;15.20;;;2.60;94.50;;;;;;4938604;29;20459;-79
2022/03/10 01:40:34;;;;;;;17.23;15.37;;;2.50;94.70;;;;;;4939978;29;20484;-78
2022/03/10 01:43:03;;;;;;;17.50;15.70;;;2.50;94.50;;;;;;4938866;28;20458;-79
2022/03/10 01:45:31;;;;;;;17.67;15.77;;;2.50;94.60;;;;;;4954455;28;20830;-78
2022/03/10 01:47:59;;;;;;;17.10;15.40;;;2.50;94.70;;;;;;4938177;29;20949;-79
2022/03/10 01:50:27;;;;;;;15.63;14.10;;;2.50;94.70;;;;;;4938187;29;20506;-79
2022/03/10 01:52:56;;;;;;;16.83;15.13;;;2.50;94.70;;;;;;4938198;29;20442;-79
2022/03/10 01:55:26;;;;;;;16.37;14.77;;;2.50;95.00;;;;;;4953021;28;21022;-78
2022/03/10 01:57:54;;;;;;;16.53;14.73;;;2.50;94.80;;;;;;4939685;29;20482;-79
2022/03/10 02:00:23;;;;;;;17.67;15.97;;;2.50;94.80;;;;;;4954973;28;20547;-79
2022/03/10 02:02:51;;;;;;;20.80;17.50;;;2.50;94.80;;;;;;4940630;29;20937;-79
2022/03/10 02:05:20;;;;;;;16.70;15.20;;;2.50;94.90;;;;;;4940211;29;20985;-77
2022/03/10 02:10:36;;;;;;;20.50;16.73;;;2.40;94.90;;;;;;4958046;28;20516;-79
2022/03/10 02:13:04;;;;;;;16.53;15.03;;;2.40;94.90;;;;;;4959981;28;20824;-79
2022/03/10 02:18:20;;;;;;;16.87;15.17;;;2.40;95.00;;;;;;4957815;29;20983;-79
2022/03/10 02:20:48;;;;;;;18.63;16.83;;;2.40;95.10;;;;;;4952149;28;20483;-79
2022/03/10 02:23:19;;;;;;;16.53;14.93;;;2.40;95.10;;;;;;4937921;29;20552;-79
2022/03/10 02:25:47;;;;;;;17.03;15.30;;;2.40;95.20;;;;;;4937827;29;20896;-79
2022/03/10 02:28:18;;;;;;;18.23;16.33;;;2.30;95.20;;;;;;4938527;29;20455;-78
2022/03/10 02:30:47;;;;;;;18.33;16.50;;;2.30;95.20;;;;;;4939177;29;20446;-79
2022/03/10 02:33:15;;;;;;;16.00;14.50;;;2.30;95.20;;;;;;4958326;28;20478;-79
2022/03/10 02:35:43;;;;;;;18.47;16.67;;;2.30;95.20;;;;;;4951753;28;20466;-78
2022/03/10 02:38:18;;;;;;;19.43;16.90;;;2.30;95.30;;;;;;4937792;28;20465;-79
2022/03/10 02:40:46;;;;;;;19.10;16.77;;;2.30;95.30;;;;;;4938257;29;20470;-79
2022/03/10 02:43:15;;;;;;;16.90;15.27;;;2.30;95.40;;;;;;4937899;29;20454;-79
2022/03/10 02:45:43;;;;;;;18.17;16.27;;;2.30;95.40;;;;;;4939829;29;20482;-79
2022/03/10 02:48:11;;;;;;;16.80;15.23;;;2.20;95.40;;;;;;4938064;28;20456;-79
2022/03/10 02:50:40;;;;;;;18.37;16.47;;;2.20;95.40;;;;;;4938197;29;20451;-79
2022/03/10 02:53:08;;;;;;;19.23;17.33;;;2.20;95.40;;;;;;4939604;29;20455;-79
2022/03/10 02:55:38;;;;;;;17.50;15.70;;;2.20;95.40;;;;;;4938015;29;20447;-79
2022/03/10 02:58:07;;;;;;;19.40;17.60;;;2.20;95.50;;;;;;4938985;29;20436;-79
2022/03/10 03:00:35;;;;;;;19.70;17.70;;;2.20;95.50;;;;;;4938360;29;20468;-78
2022/03/10 03:03:03;;;;;;;19.07;17.10;;;2.20;95.50;;;;;;4937965;29;21038;-79
2022/03/10 03:05:32;;;;;;;18.43;16.63;;;2.10;95.50;;;;;;4949237;29;20988;-79
2022/03/10 03:08:00;;;;;;;17.40;15.60;;;2.10;95.50;;;;;;4957634;28;20980;-78
2022/03/10 03:10:28;;;;;;;17.47;15.73;;;2.10;95.50;;;;;;4956859;28;20477;-79
2022/03/10 03:12:58;;;;;;;18.23;16.07;;;2.00;95.50;;;;;;4956608;28;21053;-79
2022/03/10 03:15:26;;;;;;;17.50;15.77;;;2.00;95.60;;;;;;4953855;28;20476;-78
2022/03/10 03:17:55;;;;;;;18.50;16.53;;;2.00;95.60;;;;;;4937620;29;20813;-79
2022/03/10 03:20:23;;;;;;;17.63;15.83;;;2.00;95.60;;;;;;4938905;29;20522;-78
2022/03/10 03:22:52;;;;;;;18.70;16.80;;;2.00;95.70;;;;;;4949701;28;20678;-79
2022/03/10 03:25:20;;;;;;;18.00;16.20;;;2.00;95.70;;;;;;4939248;29;20467;-79
2022/03/10 03:27:49;;;;;;;18.93;16.93;;;1.90;95.90;;;;;;4937109;29;20884;-79
2022/03/10 03:30:19;;;;;;;18.57;16.00;;;1.90;95.70;;;;;;4937272;29;20489;-79
2022/03/10 03:32:50;;;;;;;18.57;16.10;;;1.90;95.70;;;;;;4937900;29;20449;-79
2022/03/10 03:35:18;;;;;;;18.57;16.70;;;1.90;95.70;;;;;;4937584;28;20919;-78
2022/03/10 03:37:46;;;;;;;18.17;16.30;;;1.80;95.70;;;;;;4939295;29;20444;-78
2022/03/10 03:40:15;;;;;;;18.33;16.50;;;1.80;95.70;;;;;;4937450;29;20450;-79
2022/03/10 03:42:43;;;;;;;19.33;17.37;;;1.80;95.80;;;;;;4937490;29;20533;-79
2022/03/10 03:45:11;;;;;;;18.33;16.37;;;1.80;95.80;;;;;;4937312;29;21068;-79
2022/03/10 03:47:41;;;;;;;19.17;17.33;;;1.80;95.80;;;;;;4941790;29;20958;-79
2022/03/10 03:50:12;;;;;;;18.07;15.93;;;1.70;95.80;;;;;;4950603;29;20465;-79
2022/03/10 03:52:41;;;;;;;17.30;15.17;;;1.70;95.80;;;;;;4940047;28;20494;-78
2022/03/10 03:55:12;;;;;;;19.07;17.03;;;1.70;95.80;;;;;;4939580;29;20470;-79
2022/03/10 03:57:40;;;;;;;19.10;17.13;;;1.60;95.80;;;;;;4938566;29;20469;-79
2022/03/10 04:00:11;;;;;;;19.60;17.33;;;1.60;95.80;;;;;;4938072;29;20556;-79
2022/03/10 04:02:40;;;;;;;19.60;17.70;;;1.60;95.80;;;;;;4938325;29;20480;-79
2022/03/10 04:05:10;;;;;;;21.03;17.53;;;1.50;95.80;;;;;;4938674;29;20472;-79
2022/03/10 04:07:38;;;;;;;19.30;17.37;;;1.60;95.90;;;;;;4946376;28;20455;-78
2022/03/10 04:10:08;;;;;;;19.70;17.90;;;1.50;95.90;;;;;;4945136;29;20463;-79
2022/03/10 04:12:36;;;;;;;18.57;16.67;;;1.50;95.90;;;;;;4957408;29;20950;-79
2022/03/10 04:15:06;;;;;;;18.73;16.83;;;1.50;95.90;;;;;;4941201;29;20500;-79
2022/03/10 04:17:34;;;;;;;19.27;17.33;;;1.50;95.90;;;;;;4938034;29;20460;-79
2022/03/10 04:20:08;;;;;;;19.10;17.30;;;1.40;95.90;;;;;;4945870;29;20976;-79
2022/03/10 04:22:36;;;;;;;19.23;17.23;;;1.40;95.90;;;;;;4961291;28;20468;-79
2022/03/10 04:25:06;;;;;;;20.20;18.20;;;1.40;96.00;;;;;;4960927;28;20911;-79
2022/03/10 04:27:34;;;;;;;19.57;17.57;;;1.30;96.00;;;;;;4960986;28;20490;-79
2022/03/10 04:30:04;;;;;;;22.13;20.10;;;1.30;96.00;;;;;;4958796;28;20454;-79
2022/03/10 04:32:41;;;;;;;21.73;19.47;;;1.30;96.00;;;;;;4960889;28;20517;-79
2022/03/10 04:35:12;;;;;;;41.50;20.87;;;1.30;96.00;;;;;;4959264;28;20478;-78
2022/03/10 04:37:40;;;;;;;19.17;17.27;;;1.20;96.00;;;;;;4941959;29;21009;-79
2022/03/10 04:40:09;;;;;;;19.40;17.47;;;1.20;96.10;;;;;;4950541;29;20501;-79
2022/03/10 04:42:39;;;;;;;19.47;17.67;;;1.20;96.10;;;;;;4960880;28;20481;-79
2022/03/10 04:45:08;;;;;;;36.13;22.67;;;1.20;96.40;;;;;;4961843;28;20462;-79
2022/03/10 04:47:37;;;;;;;144.27;39.80;;;1.20;96.20;;;;;;4948996;28;20464;-79
2022/03/10 04:50:06;;;;;;;19.80;17.80;;;1.10;96.20;;;;;;4942681;29;20929;-79
2022/03/10 04:52:36;;;;;;;25.47;22.23;;;1.10;96.30;;;;;;4956877;28;20449;-78
2022/03/10 04:55:06;;;;;;;19.50;17.50;;;1.20;96.50;;;;;;4959903;28;20984;-78
2022/03/10 04:57:34;;;;;;;21.93;19.73;;;1.20;96.50;;;;;;4959907;28;20452;-79
2022/03/10 05:00:08;;;;;;;20.73;18.63;;;1.20;96.50;;;;;;4952174;29;20463;-78
2022/03/10 05:02:36;;;;;;;135.50;31.23;;;1.20;96.50;;;;;;4940467;29;20488;-79
2022/03/10 05:05:06;;;;;;;21.47;19.27;;;1.20;96.60;;;;;;4951331;29;20467;-78
2022/03/10 05:07:35;;;;;;;23.43;20.93;;;1.20;96.60;;;;;;4960593;29;20449;-79
2022/03/10 05:10:04;;;;;;;155.37;39.10;;;1.20;96.60;;;;;;4960838;28;20456;-79
2022/03/10 05:12:33;;;;;;;21.60;19.30;;;1.10;96.60;;;;;;4960909;28;20505;-78
2022/03/10 05:15:02;;;;;;;32.77;22.20;;;1.20;96.60;;;;;;4960989;29;20478;-79
2022/03/10 05:17:30;;;;;;;32.23;21.83;;;1.10;96.60;;;;;;4960452;28;20503;-79
2022/03/10 05:19:58;;;;;;;119.63;31.87;;;1.10;96.70;;;;;;4960309;28;20447;-79
2022/03/10 05:22:45;;;;;;;34.53;22.90;;;1.10;96.70;;;;;;4959351;28;20572;-79
2022/03/10 05:25:14;;;;;;;80.30;23.00;;;1.10;96.80;;;;;;4959363;28;20980;-79
2022/03/10 05:27:44;;;;;;;21.90;19.60;;;1.10;96.70;;;;;;4959542;28;20562;-79
2022/03/10 05:30:14;;;;;;;38.70;24.83;;;1.00;96.70;;;;;;4959920;28;20443;-78
2022/03/10 05:32:42;;;;;;;25.10;22.50;;;1.00;96.70;;;;;;4961220;28;20439;-79
2022/03/10 05:35:14;;;;;;;23.17;20.80;;;1.00;96.80;;;;;;4959323;28;20478;-79
2022/03/10 05:37:45;;;;;;;88.17;30.37;;;1.00;96.80;;;;;;4959514;28;20552;-78
2022/03/10 05:40:15;;;;;;;37.77;26.77;;;1.00;96.80;;;;;;4964373;29;20447;-78
2022/03/10 05:42:44;;;;;;;22.80;20.50;;;1.00;96.80;;;;;;4972691;28;20564;-78
2022/03/10 05:45:14;;;;;;;120.37;35.63;;;0.90;96.80;;;;;;4972027;28;20474;-78
2022/03/10 05:47:44;;;;;;;21.77;19.47;;;0.90;96.90;;;;;;4972019;28;20483;-78
2022/03/10 05:50:12;;;;;;;22.80;20.40;;;0.90;96.90;;;;;;4972610;28;20443;-78
2022/03/10 05:52:40;;;;;;;33.13;23.50;;;0.90;96.90;;;;;;4973324;29;20435;-78
2022/03/10 05:55:10;;;;;;;70.87;30.87;;;0.90;96.90;;;;;;4972915;28;20462;-78
2022/03/10 05:57:39;;;;;;;705.63;81.93;;;0.90;97.00;;;;;;4971435;28;20458;-78
2022/03/10 06:00:10;;;;;;;23.70;20.87;;;0.90;97.00;;;;;;4969053;29;20526;-78
2022/03/10 06:02:41;;;;;;;24.20;21.20;;;0.90;97.10;;;;;;4968706;28;20480;-78
2022/03/10 06:05:10;;;;;;;203.27;33.80;;;0.90;97.10;;;;;;4967172;28;20459;-79
2022/03/10 06:07:39;;;;;;;26.33;23.63;;;0.90;97.10;;;;;;4961824;29;20469;-78
2022/03/10 06:10:08;;;;;;;22.67;20.30;;;0.90;97.10;;;;;;4960364;28;20448;-78
2022/03/10 06:12:38;;;;;;;528.53;69.93;;;0.90;97.20;;;;;;4959762;28;20525;-79
2022/03/10 06:15:08;;;;;;;42.77;25.07;;;0.90;97.20;;;;;;4961736;28;20469;-79
2022/03/10 06:17:37;;;;;;;23.17;20.67;;;0.90;97.20;;;;;;4961440;28;20440;-79
2022/03/10 06:20:06;;;;;;;952.43;99.67;;;0.90;97.30;;;;;;4957741;28;20480;-79
2022/03/10 06:22:36;;;;;;;214.60;54.57;;;0.90;97.30;;;;;;4958430;28;20478;-79
2022/03/10 06:25:07;;;;;;;159.17;31.50;;;0.90;97.40;;;;;;4957807;28;20506;-78
2022/03/10 06:27:36;;;;;;;93.27;29.73;;;1.00;97.50;;;;;;4960066;28;20430;-79
2022/03/10 06:30:06;;;;;;;522.97;65.33;;;1.00;97.50;;;;;;4959344;28;20449;-79
2022/03/10 06:32:35;;;;;;;501.07;62.83;;;1.00;97.50;;;;;;4959509;28;20448;-79
2022/03/10 06:35:04;;;;;;;38.53;24.53;;;1.00;97.60;;;;;;4960419;29;20475;-79
2022/03/10 06:37:32;;;;;;;60.00;26.13;;;1.00;97.60;;;;;;4961270;29;20816;-79
2022/03/10 06:40:02;;;;;;;533.10;79.57;;;1.00;97.60;;;;;;4959767;28;20458;-79
2022/03/10 06:42:31;;;;;;;159.13;35.10;;;1.00;97.70;;;;;;4959304;28;20890;-79
2022/03/10 06:44:59;;;;;;;46.13;24.80;;;1.10;97.70;;;;;;4959511;28;20482;-79
2022/03/10 06:47:29;;;;;;;76.67;24.70;;;1.10;97.80;;;;;;4959555;28;20485;-79
2022/03/10 06:49:57;;;;;;;43.47;24.73;;;1.20;97.80;;;;;;4961232;28;20957;-79
2022/03/10 06:52:26;;;;;;;135.70;34.90;;;1.30;97.90;;;;;;4959555;28;20490;-79
2022/03/10 06:54:54;;;;;;;227.80;42.20;;;1.40;97.90;;;;;;4959709;28;20530;-79
2022/03/10 06:57:22;;;;;;;36.00;25.87;;;1.50;97.90;;;;;;4960075;28;20455;-79
2022/03/10 06:59:51;;;;;;;35.33;23.67;;;1.60;98.00;;;;;;4962009;29;20444;-79
2022/03/10 07:02:19;;;;;;;192.77;42.20;;;1.80;98.10;;;;;;4958756;28;20828;-79
2022/03/10 07:04:49;;;;;;;28.40;24.03;;;1.90;98.10;;;;;;4958581;28;20527;-79
2022/03/10 07:07:17;;;;;;;28.27;24.43;;;2.00;98.40;;;;;;4959703;29;20455;-79
2022/03/10 07:09:45;;;;;;;99.93;41.70;;;2.10;98.20;;;;;;4958282;28;20450;-79
2022/03/10 07:12:14;;;;;;;22.77;20.50;;;2.20;98.30;;;;;;4959471;28;20453;-79
2022/03/10 07:14:42;;;;;;;19.93;17.83;;;2.20;98.30;;;;;;4958780;29;21046;-78
2022/03/10 07:17:11;;;;;;;20.80;18.70;;;2.30;98.30;;;;;;4957401;28;20467;-78
2022/03/10 07:19:39;;;;;;;22.07;19.87;;;2.40;98.40;;;;;;4958535;28;20532;-79
2022/03/10 07:22:11;;;;;;;18.77;16.87;;;2.40;98.40;;;;;;4957651;28;20454;-79
2022/03/10 07:24:39;;;;;;;19.93;17.93;;;2.50;98.40;;;;;;4957406;28;20486;-79
2022/03/10 07:27:08;;;;;;;18.90;16.50;;;2.60;98.40;;;;;;4956404;28;20487;-79
2022/03/10 07:29:36;;;;;;;18.80;17.00;;;2.60;98.40;;;;;;4956176;28;20469;-79
2022/03/10 07:32:05;;;;;;;19.20;17.40;;;2.70;98.50;;;;;;4955708;29;20450;-78
2022/03/10 07:34:34;;;;;;;19.80;17.70;;;2.70;98.50;;;;;;4955452;28;20482;-79
2022/03/10 07:37:02;;;;;;;17.90;16.10;;;2.80;98.50;;;;;;4955499;28;20457;-78
2022/03/10 07:39:31;;;;;;;19.23;16.93;;;2.90;98.50;;;;;;4955031;29;20500;-79
2022/03/10 07:42:00;;;;;;;18.67;16.67;;;2.90;98.50;;;;;;4955070;28;20462;-79
2022/03/10 07:44:28;;;;;;;21.00;18.83;;;3.00;98.50;;;;;;4956150;29;20490;-79
2022/03/10 07:46:57;;;;;;;19.03;17.07;;;3.10;98.50;;;;;;4955246;28;20797;-79
2022/03/10 07:49:25;;;;;;;18.53;16.63;;;3.10;98.50;;;;;;4955511;28;20546;-78
2022/03/10 07:51:53;;;;;;;18.70;16.77;;;3.20;98.60;;;;;;4955434;28;20454;-79
2022/03/10 07:54:22;;;;;;;19.40;17.60;;;3.30;98.60;;;;;;4957285;28;20553;-79
2022/03/10 07:56:52;;;;;;;18.77;16.77;;;3.40;98.60;;;;;;4958715;29;20443;-78
2022/03/10 07:59:20;;;;;;;17.17;15.60;;;3.50;98.60;;;;;;4958730;28;20562;-79
2022/03/10 08:01:48;;;;;;;18.20;15.87;;;3.50;98.60;;;;;;4960597;28;20446;-79
2022/03/10 08:04:17;;;;;;;17.93;16.03;;;3.60;98.60;;;;;;4960189;28;20545;-78
2022/03/10 08:06:45;;;;;;;18.83;17.00;;;3.80;98.60;;;;;;4958999;28;20461;-78
2022/03/10 08:09:15;;;;;;;18.77;16.97;;;3.90;98.60;;;;;;4960488;28;20860;-79
2022/03/10 08:11:43;;;;;;;19.10;17.17;;;4.00;98.60;;;;;;4959830;29;20545;-78
2022/03/10 08:14:13;;;;;;;20.87;18.40;;;4.20;98.70;;;;;;4960083;28;20537;-79
2022/03/10 08:16:41;;;;;;;20.70;18.70;;;4.30;98.70;;;;;;4958079;28;20561;-79
2022/03/10 08:19:11;;;;;;;18.37;16.77;;;4.60;98.70;;;;;;4959821;29;20427;-78
2022/03/10 08:21:39;;;;;;;19.47;17.07;;;4.70;98.70;;;;;;4958375;28;20458;-78
2022/03/10 08:24:08;;;;;;;17.63;16.03;;;4.90;98.60;;;;;;4959366;28;20573;-78
2022/03/10 08:26:37;;;;;;;19.37;17.40;;;5.20;98.70;;;;;;4958915;28;20863;-78
2022/03/10 08:29:05;;;;;;;21.70;19.43;;;5.30;98.70;;;;;;4959435;29;20513;-77
2022/03/10 08:31:35;;;;;;;24.57;22.03;;;5.50;98.70;;;;;;4957295;28;20450;-77
2022/03/10 08:34:03;;;;;;;19.20;17.20;;;5.70;98.60;;;;;;4956967;28;20494;-77
2022/03/10 08:36:32;;;;;;;18.13;16.50;;;5.90;98.90;;;;;;4958106;29;20521;-78
2022/03/10 08:39:00;;;;;;;17.97;16.27;;;6.10;98.60;;;;;;4959390;28;20578;-78
2022/03/10 08:41:28;;;;;;;17.50;15.80;;;6.20;98.50;;;;;;4958913;28;20865;-78
2022/03/10 08:43:56;;;;;;;17.40;15.80;;;6.40;98.50;;;;;;4958151;28;20486;-78
2022/03/10 08:46:25;;;;;;;15.93;14.50;;;6.60;98.50;;;;;;4957021;28;20553;-78
2022/03/10 08:48:54;;;;;;;16.33;14.73;;;6.70;98.40;;;;;;4956973;29;20463;-78
2022/03/10 08:51:22;;;;;;;17.50;15.90;;;6.80;98.30;;;;;;4956803;29;20531;-78
2022/03/10 08:53:51;;;;;;;16.47;15.07;;;7.00;98.30;;;;;;4956562;28;20998;-78
2022/03/10 08:56:21;;;;;;;15.90;14.57;;;7.10;98.20;;;;;;4956567;29;20450;-78
2022/03/10 08:58:50;;;;;;;16.50;15.00;;;7.30;98.20;;;;;;4956650;28;20819;-78
2022/03/10 09:01:18;;;;;;;16.33;14.90;;;7.40;98.20;;;;;;4956899;28;20564;-78
2022/03/10 09:03:51;;;;;;;17.33;15.60;;;7.50;98.10;;;;;;4957676;28;20481;-78
2022/03/10 09:06:21;;;;;;;16.67;14.97;;;7.60;98.30;;;;;;4957488;28;20454;-78
2022/03/10 09:08:49;;;;;;;16.70;14.97;;;7.60;98.00;;;;;;4956678;28;20881;-77
2022/03/10 09:11:18;;;;;;;15.90;14.30;;;7.70;97.90;;;;;;4956197;28;20519;-78
2022/03/10 09:13:48;;;;;;;16.07;14.57;;;7.80;97.80;;;;;;4956221;28;20990;-78
2022/03/10 09:16:17;;;;;;;17.13;15.53;;;7.90;97.80;;;;;;4956834;29;20448;-78
2022/03/10 09:18:46;;;;;;;14.80;13.30;;;7.90;97.70;;;;;;4956889;28;20458;-77
2022/03/10 09:21:15;;;;;;;15.03;13.60;;;8.00;97.70;;;;;;4956252;29;20537;-78
2022/03/10 09:23:44;;;;;;;15.10;13.80;;;8.10;97.60;;;;;;4957446;28;20546;-78
2022/03/10 09:26:13;;;;;;;15.30;13.97;;;8.10;97.50;;;;;;4956299;28;20458;-78
2022/03/10 09:28:42;;;;;;;15.03;13.57;;;8.20;97.50;;;;;;4955956;29;20903;-78
2022/03/10 09:31:16;;;;;;;18.07;16.40;;;8.30;97.40;;;;;;4955617;29;20446;-78
2022/03/10 09:33:45;;;;;;;16.20;14.70;;;8.30;97.30;;;;;;4955273;28;20485;-78
2022/03/10 09:36:15;;;;;;;14.10;12.80;;;8.40;97.20;;;;;;4956979;28;20458;-78
2022/03/10 09:38:44;;;;;;;15.30;14.00;;;8.40;97.20;;;;;;4955505;28;20458;-77
2022/03/10 09:41:12;;;;;;;14.80;13.30;;;8.40;97.10;;;;;;4955350;28;20803;-78
2022/03/10 09:43:41;;;;;;;14.30;13.07;;;8.50;97.00;;;;;;4955271;29;20569;-78
2022/03/10 09:46:09;;;;;;;14.00;12.70;;;8.50;97.00;;;;;;4955353;28;20797;-77
2022/03/10 09:48:40;;;;;;;15.47;14.17;;;8.60;97.00;;;;;;4956488;28;20438;-77
2022/03/10 09:51:08;;;;;;;15.20;13.17;;;8.60;96.90;;;;;;4955122;28;20458;-77
2022/03/10 09:53:39;;;;;;;14.90;13.60;;;8.70;96.80;;;;;;4956807;29;20978;-77
2022/03/10 09:56:08;;;;;;;14.37;13.07;;;8.70;96.80;;;;;;4955064;28;20948;-77
2022/03/10 09:58:36;;;;;;;14.53;13.23;;;8.70;96.70;;;;;;4955149;28;20537;-77
2022/03/10 10:01:07;;;;;;;14.63;13.23;;;8.80;96.60;;;;;;4955032;29;20454;-77
2022/03/10 10:03:36;;;;;;;15.00;13.60;;;8.80;96.50;;;;;;4954951;29;20898;-78
2022/03/10 10:06:06;;;;;;;14.03;12.73;;;8.90;96.50;;;;;;4956369;28;20466;-77
2022/03/10 10:08:35;;;;;;;14.20;13.00;;;9.00;96.50;;;;;;4956195;28;20441;-77
2022/03/10 10:11:03;;;;;;;14.27;12.70;;;9.00;96.40;;;;;;4956395;28;20461;-77
2022/03/10 10:13:37;;;;;;;13.17;11.97;;;9.00;96.40;;;;;;4956037;29;20470;-78
2022/03/10 10:16:07;;;;;;;14.97;12.87;;;9.10;96.40;;;;;;4954243;28;20458;-78
2022/03/10 10:18:37;;;;;;;13.70;12.40;;;9.10;96.30;;;;;;4954770;29;21084;-78
2022/03/10 10:21:14;;;;;;;13.73;12.43;;;9.10;96.20;;;;;;4954616;28;20457;-78
2022/03/10 10:23:43;;;;;;;13.73;12.30;;;9.20;96.10;;;;;;4954619;29;20530;-77
2022/03/10 10:26:12;;;;;;;14.30;12.83;;;9.30;96.10;;;;;;4954499;28;20851;-78
2022/03/10 10:28:49;;;;;;;14.13;12.87;;;9.30;96.00;;;;;;4954842;29;20485;-76
2022/03/10 10:31:18;;;;;;;13.53;12.33;;;9.40;96.00;;;;;;4954587;28;20459;-76
2022/03/10 10:33:59;;;;;;;13.80;12.37;;;9.40;95.90;;;;;;4954528;29;20479;-76
2022/03/10 10:36:29;;;;;;;14.13;12.83;;;9.50;95.80;;;;;;4954720;29;20509;-76
2022/03/10 10:38:58;;;;;;;14.60;13.17;;;9.50;95.70;;;;;;4954447;28;20823;-76
2022/03/10 10:41:28;;;;;;;17.30;15.67;;;9.60;95.70;;;;;;4954480;28;20451;-77
2022/03/10 10:43:59;;;;;;;13.67;12.23;;;9.60;95.70;;;;;;4954466;28;20566;-76
2022/03/10 10:46:32;;;;;;;13.70;12.50;;;9.70;95.70;;;;;;4954394;29;20467;-77
2022/03/10 10:49:02;;;;;;;13.13;11.93;;;9.80;95.70;;;;;;4954357;28;20526;-76
2022/03/10 10:51:33;;;;;;;13.80;12.30;;;9.80;95.70;;;;;;4955845;29;20426;-76
2022/03/10 10:54:03;;;;;;;14.30;12.97;;;9.90;95.60;;;;;;4954194;29;20498;-77
2022/03/10 10:56:33;;;;;;;13.10;11.90;;;10.00;95.10;;;;;;4955961;29;20526;-77
2022/03/10 10:59:03;;;;;;;14.43;13.07;;;10.00;95.10;;;;;;4954736;28;20459;-77
2022/03/10 11:01:33;;;;;;;13.20;11.80;;;10.10;95.10;;;;;;4955305;28;21011;-76
2022/03/10 11:04:04;;;;;;;14.20;12.90;;;10.10;95.00;;;;;;4954242;29;20482;-76
2022/03/10 11:06:34;;;;;;;13.83;12.57;;;10.20;95.10;;;;;;4954103;28;20466;-76
2022/03/10 11:09:03;;;;;;;13.00;11.80;;;10.20;95.00;;;;;;4955601;28;20470;-76
2022/03/10 11:11:32;;;;;;;14.50;11.77;;;10.30;95.00;;;;;;4955263;28;20538;-77
2022/03/10 11:14:02;;;;;;;13.87;12.30;;;10.30;94.90;;;;;;4953926;28;20502;-76
2022/03/10 11:16:30;;;;;;;15.37;12.07;;;10.40;95.00;;;;;;4955200;29;20948;-76
2022/03/10 11:19:01;;;;;;;12.90;11.70;;;10.50;95.00;;;;;;4954002;29;20466;-76
2022/03/10 11:21:48;;;;;;;13.13;11.77;;;10.50;94.90;;;;;;4954098;29;20545;-77
2022/03/10 11:24:40;;;;;;;12.50;11.33;;;10.60;94.90;;;;;;4954010;29;20845;-76
2022/03/10 11:27:13;;;;;;;13.47;12.17;;;10.60;94.70;;;;;;4955635;28;20521;-76
2022/03/10 11:29:45;;;;;;;13.47;12.07;;;10.70;94.70;;;;;;4957936;29;20482;-76
2022/03/10 11:32:14;;;;;;;12.70;11.50;;;10.80;94.60;;;;;;4957779;29;20446;-76
2022/03/10 11:34:49;;;;;;;12.40;11.17;;;10.90;94.70;;;;;;4957583;28;20471;-76
2022/03/10 11:37:38;;;;;;;13.43;12.13;;;10.90;94.60;;;;;;4957655;29;20450;-77
2022/03/10 11:40:11;;;;;;;13.50;12.23;;;11.00;94.50;;;;;;4957620;29;20505;-76
2022/03/10 11:42:40;;;;;;;12.37;11.17;;;11.10;94.50;;;;;;4957716;28;20460;-76
2022/03/10 11:45:16;;;;;;;12.80;11.47;;;11.20;94.50;;;;;;4957590;28;20577;-76
2022/03/10 11:47:45;;;;;;;12.97;11.63;;;11.20;94.40;;;;;;4957627;28;20496;-77
2022/03/10 11:50:29;;;;;;;13.27;12.03;;;11.30;94.40;;;;;;4957445;29;20455;-76
2022/03/10 11:53:01;;;;;;;14.17;12.77;;;11.30;94.30;;;;;;4957510;29;20494;-76
2022/03/10 11:55:41;;;;;;;12.63;11.43;;;11.40;94.20;;;;;;4957295;28;20517;-77
2022/03/10 11:58:10;;;;;;;13.60;12.20;;;11.50;94.10;;;;;;4957323;29;20478;-76
2022/03/10 12:00:51;;;;;;;12.60;11.40;;;11.50;94.20;;;;;;4957280;28;20553;-76
2022/03/10 12:03:30;;;;;;;13.43;11.50;;;11.60;94.10;;;;;;4957766;28;20451;-77
2022/03/10 12:06:00;;;;;;;14.30;12.90;;;11.70;94.10;;;;;;4957135;29;20568;-77
2022/03/10 12:08:30;;;;;;;13.47;12.27;;;11.70;94.00;;;;;;4958598;28;20454;-76
2022/03/10 12:11:00;;;;;;;12.43;11.27;;;11.80;94.00;;;;;;4957144;29;20549;-76
2022/03/10 12:13:30;;;;;;;12.87;11.67;;;11.80;93.80;;;;;;4958544;29;20443;-77
2022/03/10 12:16:00;;;;;;;12.50;11.20;;;11.90;93.90;;;;;;4957060;29;20792;-76
2022/03/10 12:18:41;;;;;;;13.30;11.90;;;11.90;93.80;;;;;;4957014;29;20454;-77
2022/03/10 12:21:21;;;;;;;12.30;11.10;;;11.90;93.70;;;;;;4956991;29;20454;-76
2022/03/10 12:23:54;;;;;;;12.83;11.63;;;12.00;93.70;;;;;;4956794;28;20568;-77
2022/03/10 12:26:27;;;;;;;13.10;11.77;;;12.10;93.60;;;;;;4956744;29;20459;-77
2022/03/10 12:28:56;;;;;;;11.73;10.63;;;12.10;93.60;;;;;;4956772;29;20462;-76
2022/03/10 12:31:29;;;;;;;14.10;12.30;;;12.20;93.50;;;;;;4958011;28;20490;-76
2022/03/10 12:33:59;;;;;;;13.83;12.40;;;12.20;93.30;;;;;;4956443;29;20499;-76
2022/03/10 12:36:34;;;;;;;13.00;11.80;;;12.30;93.40;;;;;;4956683;28;20455;-76
2022/03/10 12:39:05;;;;;;;12.40;11.40;;;12.30;93.20;;;;;;4956066;28;20450;-76
2022/03/10 12:41:37;;;;;;;11.80;10.80;;;12.40;93.20;;;;;;4956698;29;20982;-77
2022/03/10 12:44:07;;;;;;;13.90;12.50;;;12.40;93.10;;;;;;4957392;29;20933;-76
2022/03/10 12:46:38;;;;;;;13.27;11.97;;;12.50;93.10;;;;;;4958256;28;20485;-76
2022/03/10 12:49:12;;;;;;;12.23;11.03;;;12.50;92.90;;;;;;4956365;28;20439;-77
2022/03/10 12:51:41;;;;;;;12.10;10.97;;;12.60;92.90;;;;;;4956437;28;20461;-76
2022/03/10 12:54:10;;;;;;;12.87;11.50;;;12.60;92.60;;;;;;4956267;28;20475;-77